createdAt,value
2023-02-27T00:00:14.981Z,67.60
2023-02-27T00:02:44.372Z,68.29
2023-02-27T00:05:11.706Z,68.83
2023-02-27T00:07:38.528Z,68.13
2023-02-27T00:10:06.429Z,68.62
2023-02-27T00:12:37.814Z,69.08
2023-02-27T00:15:08.379Z,69.55
2023-02-27T00:17:35.150Z,68.95
2023-02-27T00:20:01.601Z,68.12
2023-02-27T00:22:28.116Z,69.40
2023-02-27T00:24:54.661Z,68.45
2023-02-27T00:27:21.135Z,69.47
2023-02-27T00:29:47.590Z,69.87
2023-02-27T00:32:14.398Z,70.20
2023-02-27T00:34:40.861Z,69.08
2023-02-27T00:37:07.895Z,69.20
2023-02-27T00:39:34.395Z,69.71
2023-02-27T00:42:00.831Z,68.88
2023-02-27T00:44:27.234Z,69.42
2023-02-27T00:46:53.753Z,68.03
2023-02-27T00:49:20.688Z,68.52
2023-02-27T00:51:47.524Z,69.63
2023-02-27T00:54:13.921Z,69.18
2023-02-27T00:56:41.059Z,68.66
2023-02-27T00:59:07.455Z,69.07
2023-02-27T01:01:33.882Z,69.10
2023-02-27T01:04:01.185Z,69.10
2023-02-27T01:06:27.908Z,69.32
2023-02-27T01:08:55.930Z,68.74
2023-02-27T01:11:24.844Z,69.57
2023-02-27T01:13:51.737Z,69.33
2023-02-27T01:16:18.230Z,69.41
2023-02-27T01:18:44.825Z,70.25
2023-02-27T01:21:11.353Z,69.51
2023-02-27T01:23:37.768Z,69.97
2023-02-27T01:26:04.359Z,69.97
2023-02-27T01:28:30.845Z,69.92
2023-02-27T01:30:57.270Z,70.58
2023-02-27T01:33:23.812Z,70.50
2023-02-27T01:35:50.276Z,70.17
2023-02-27T01:38:16.790Z,70.02
2023-02-27T01:40:43.591Z,70.18
2023-02-27T01:43:15.940Z,69.65
2023-02-27T01:45:44.321Z,69.89
2023-02-27T01:48:19.730Z,69.26
2023-02-27T01:51:03.105Z,70.98
2023-02-27T01:53:32.626Z,70.80
2023-02-27T01:56:04.994Z,70.80
2023-02-27T01:58:31.984Z,70.13
2023-02-27T02:00:58.762Z,70.23
2023-02-27T02:03:48.622Z,69.98
2023-02-27T02:06:15.645Z,70.41
2023-02-27T02:08:44.960Z,69.79
2023-02-27T02:11:13.346Z,70.36
2023-02-27T02:13:40.920Z,69.89
2023-02-27T02:16:19.970Z,70.92
2023-02-27T02:18:56.769Z,70.30
2023-02-27T02:21:54.771Z,70.16
2023-02-27T02:24:45.505Z,70.02
2023-02-27T02:27:30.421Z,70.56
2023-02-27T02:30:25.719Z,70.75
2023-02-27T02:33:17.997Z,70.35
2023-02-27T02:36:19.248Z,70.69
2023-02-27T02:39:03.226Z,69.62
2023-02-27T02:41:52.864Z,69.85
2023-02-27T02:44:33.226Z,69.94
2023-02-27T02:47:15.178Z,70.82
2023-02-27T02:49:41.511Z,70.83
2023-02-27T02:52:27.560Z,70.71
2023-02-27T02:55:11.293Z,70.58
2023-02-27T02:57:43.733Z,71.42
2023-02-27T03:00:16.611Z,70.95
2023-02-27T03:02:50.634Z,71.21
2023-02-27T03:05:32.850Z,71.88
2023-02-27T03:08:06.234Z,71.21
2023-02-27T03:10:42.387Z,70.99
2023-02-27T03:13:18.002Z,71.28
2023-02-27T03:15:54.454Z,71.01
2023-02-27T03:18:28.565Z,71.60
2023-02-27T03:20:59.595Z,71.85
2023-02-27T03:23:35.144Z,71.16
2023-02-27T03:26:04.746Z,71.46
2023-02-27T03:28:35.778Z,71.20
2023-02-27T03:31:13.974Z,71.30
2023-02-27T03:33:49.675Z,71.23
2023-02-27T03:36:41.529Z,71.37
2023-02-27T03:39:19.621Z,70.97
2023-02-27T03:42:07.532Z,71.17
2023-02-27T03:45:07.905Z,70.54
2023-02-27T03:47:35.624Z,70.97
2023-02-27T03:50:02.333Z,70.03
2023-02-27T03:52:30.016Z,70.06
2023-02-27T03:55:01.671Z,69.98
2023-02-27T03:57:29.136Z,70.42
2023-02-27T03:59:55.748Z,69.13
2023-02-27T04:02:22.772Z,69.34
2023-02-27T04:04:49.465Z,69.19
2023-02-27T04:07:57.191Z,68.89
2023-02-27T04:10:44.584Z,69.75
2023-02-27T04:13:29.793Z,69.21
2023-02-27T04:16:36.309Z,69.38
2023-02-27T04:19:35.797Z,69.83
2023-02-27T04:22:10.094Z,69.78
2023-02-27T04:24:58.620Z,69.56
2023-02-27T04:27:43.835Z,69.29
2023-02-27T04:30:35.618Z,69.28
2023-02-27T04:33:14.229Z,69.29
2023-02-27T04:35:51.460Z,69.50
2023-02-27T04:39:08.064Z,69.16
2023-02-27T04:41:45.433Z,68.49
2023-02-27T04:44:13.949Z,69.21
2023-02-27T04:46:43.433Z,69.37
2023-02-27T04:49:44.190Z,68.96
2023-02-27T04:52:34.274Z,69.79
2023-02-27T04:55:15.388Z,70.49
2023-02-27T04:57:50.392Z,69.73
2023-02-27T05:00:20.568Z,69.97
2023-02-27T05:02:53.302Z,70.39
2023-02-27T05:05:26.603Z,70.68
2023-02-27T05:08:00.572Z,69.86
2023-02-27T05:10:40.679Z,70.52
2023-02-27T05:13:14.869Z,71.02
2023-02-27T05:16:07.758Z,71.00
2023-02-27T05:18:34.600Z,71.21
2023-02-27T05:21:14.972Z,71.27
2023-02-27T05:23:58.467Z,70.95
2023-02-27T05:26:55.112Z,70.61
2023-02-27T05:29:36.227Z,70.97
2023-02-27T05:32:18.813Z,71.25
2023-02-27T05:35:12.648Z,71.54
2023-02-27T05:37:48.021Z,70.66
2023-02-27T05:40:20.004Z,70.69
2023-02-27T05:43:08.659Z,71.65
2023-02-27T05:45:38.755Z,71.08
2023-02-27T05:48:14.398Z,71.36
2023-02-27T05:50:43.071Z,72.10
2023-02-27T05:53:13.277Z,71.91
2023-02-27T05:55:45.846Z,70.95
2023-02-27T05:58:22.666Z,71.85
2023-02-27T06:00:57.158Z,71.30
2023-02-27T06:03:24.066Z,71.81
2023-02-27T06:05:53.599Z,71.53
2023-02-27T06:08:21.669Z,71.94
2023-02-27T06:10:49.875Z,71.48
2023-02-27T06:13:17.255Z,72.15
2023-02-27T06:15:44.848Z,71.73
2023-02-27T06:18:12.683Z,71.88
2023-02-27T06:20:39.677Z,71.77
2023-02-27T06:23:06.670Z,71.04
2023-02-27T06:25:33.800Z,71.16
2023-02-27T06:28:00.500Z,72.32
2023-02-27T06:30:27.264Z,72.15
2023-02-27T06:32:53.945Z,72.45
2023-02-27T06:35:21.739Z,70.86
2023-02-27T06:37:48.219Z,72.64
2023-02-27T06:40:15.794Z,71.51
2023-02-27T06:42:43.792Z,73.13
2023-02-27T06:45:12.644Z,72.65
2023-02-27T06:47:40.413Z,72.34
2023-02-27T06:50:08.649Z,72.62
2023-02-27T06:52:35.227Z,72.02
2023-02-27T06:55:01.627Z,72.59
2023-02-27T06:57:28.040Z,72.11
2023-02-27T06:59:54.431Z,71.46
2023-02-27T07:02:21.032Z,71.80
2023-02-27T07:04:47.460Z,72.61
2023-02-27T07:07:33.799Z,72.47
2023-02-27T07:10:01.112Z,72.38
2023-02-27T07:12:27.520Z,71.72
2023-02-27T07:14:53.929Z,72.28
2023-02-27T07:17:20.331Z,71.13
2023-02-27T07:19:46.725Z,71.73
2023-02-27T07:22:13.124Z,72.40
2023-02-27T07:24:39.653Z,72.65
2023-02-27T07:27:06.057Z,71.46
2023-02-27T07:29:32.533Z,71.87
2023-02-27T07:31:59.043Z,71.54
2023-02-27T07:34:25.507Z,72.32
2023-02-27T07:36:51.939Z,71.82
2023-02-27T07:39:19.328Z,71.88
2023-02-27T07:41:45.758Z,71.65
2023-02-27T07:44:16.951Z,71.23
2023-02-27T07:46:44.631Z,70.94
2023-02-27T07:49:11.188Z,71.34
2023-02-27T07:51:37.613Z,70.19
2023-02-27T07:54:04.146Z,70.34
2023-02-27T07:56:30.873Z,70.17
2023-02-27T07:58:57.393Z,69.55
2023-02-27T08:01:23.815Z,70.22
2023-02-27T08:03:50.269Z,70.10
2023-02-27T08:06:16.898Z,69.14
2023-02-27T08:08:43.375Z,67.82
2023-02-27T08:11:10.123Z,69.02
2023-02-27T08:16:23.004Z,68.78
2023-02-27T08:18:49.468Z,68.14
2023-02-27T08:21:15.929Z,68.59
2023-02-27T08:23:42.719Z,67.99
2023-02-27T08:26:09.373Z,67.69
2023-02-27T08:28:35.756Z,67.34
2023-02-27T08:31:02.193Z,67.32
2023-02-27T08:33:29.071Z,66.31
2023-02-27T08:35:55.760Z,65.95
2023-02-27T08:38:22.198Z,66.79
2023-02-27T08:40:50.960Z,65.94
2023-02-27T08:43:17.384Z,66.49
2023-02-27T08:45:43.791Z,66.12
2023-02-27T08:48:14.154Z,65.65
2023-02-27T08:50:40.571Z,64.79
2023-02-27T08:53:07.024Z,64.62
2023-02-27T08:55:33.428Z,65.77
2023-02-27T08:57:59.930Z,65.55
2023-02-27T09:00:26.839Z,64.51
2023-02-27T09:02:54.013Z,64.77
2023-02-27T09:05:22.816Z,64.65
2023-02-27T09:07:49.246Z,64.09
2023-02-27T09:10:15.663Z,64.04
2023-02-27T09:12:42.882Z,64.98
2023-02-27T09:15:11.170Z,63.31
2023-02-27T09:17:38.272Z,64.04
2023-02-27T09:20:09.080Z,63.01
2023-02-27T09:22:35.545Z,62.65
2023-02-27T09:25:01.966Z,62.06
2023-02-27T09:27:28.475Z,62.22
2023-02-27T09:29:56.292Z,61.69
2023-02-27T09:32:23.467Z,62.64
2023-02-27T09:34:50.457Z,60.31
2023-02-27T09:37:19.098Z,62.04
2023-02-27T09:39:46.395Z,61.38
2023-02-27T09:42:23.066Z,60.78
2023-02-27T09:44:53.726Z,60.47
2023-02-27T09:47:29.014Z,61.36
2023-02-27T09:49:58.005Z,59.76
2023-02-27T09:52:24.757Z,60.26
2023-02-27T09:54:51.371Z,60.62
2023-02-27T09:57:40.042Z,59.45
2023-02-27T10:00:39.797Z,58.99
2023-02-27T10:03:21.692Z,58.11
2023-02-27T10:06:11.002Z,58.02
2023-02-27T10:09:02.365Z,58.01
2023-02-27T10:11:53.828Z,58.37
2023-02-27T10:14:35.990Z,58.55
2023-02-27T10:17:05.915Z,58.01
2023-02-27T10:19:37.020Z,58.02
2023-02-27T10:22:07.889Z,58.58
2023-02-27T10:24:42.595Z,59.18
2023-02-27T10:27:16.299Z,58.93
2023-02-27T10:29:43.129Z,57.83
2023-02-27T10:32:26.968Z,57.42
2023-02-27T10:35:27.170Z,57.13
2023-02-27T10:37:59.533Z,55.49
2023-02-27T10:40:27.112Z,56.33
2023-02-27T10:42:56.358Z,55.32
2023-02-27T10:45:22.901Z,55.49
2023-02-27T10:47:49.319Z,54.81
2023-02-27T10:50:31.894Z,54.76
2023-02-27T10:53:01.722Z,54.45
2023-02-27T10:55:36.591Z,55.39
2023-02-27T10:58:04.512Z,54.55
2023-02-27T11:00:45.101Z,54.04
2023-02-27T11:03:24.605Z,53.91
2023-02-27T11:06:13.822Z,53.92
2023-02-27T11:08:40.443Z,52.14
2023-02-27T11:11:09.716Z,53.18
2023-02-27T11:13:39.008Z,51.90
2023-02-27T11:16:05.838Z,52.01
2023-02-27T11:18:33.861Z,52.09
2023-02-27T11:21:13.912Z,51.44
2023-02-27T11:23:52.348Z,51.08
2023-02-27T11:26:40.125Z,52.10
2023-02-27T11:29:11.534Z,51.11
2023-02-27T11:31:39.339Z,51.47
2023-02-27T11:34:08.137Z,52.11
2023-02-27T11:36:47.169Z,52.38
2023-02-27T11:39:47.818Z,53.62
2023-02-27T11:42:18.510Z,51.22
2023-02-27T11:44:55.216Z,51.72
2023-02-27T11:47:27.213Z,50.74
2023-02-27T11:50:02.651Z,52.41
2023-02-27T11:52:44.250Z,52.21
2023-02-27T11:55:17.762Z,53.44
2023-02-27T11:57:47.241Z,51.94
2023-02-27T12:00:29.535Z,52.61
2023-02-27T12:03:05.133Z,52.43
2023-02-27T12:05:54.347Z,52.18
2023-02-27T12:08:35.996Z,50.88
2023-02-27T12:11:25.106Z,50.90
2023-02-27T12:13:58.585Z,50.73
2023-02-27T12:16:36.499Z,50.79
2023-02-27T12:19:18.313Z,51.91
2023-02-27T12:21:49.883Z,52.23
2023-02-27T12:24:31.338Z,52.07
2023-02-27T12:27:19.095Z,52.20
2023-02-27T12:29:52.486Z,52.11
2023-02-27T12:32:43.355Z,51.78
2023-02-27T12:35:15.940Z,52.57
2023-02-27T12:37:42.404Z,51.62
2023-02-27T12:40:15.391Z,51.65
2023-02-27T12:42:57.100Z,51.70
2023-02-27T12:45:31.419Z,51.45
2023-02-27T12:48:01.567Z,52.72
2023-02-27T12:50:43.685Z,52.51
2023-02-27T12:53:32.018Z,51.30
2023-02-27T12:56:06.522Z,50.58
2023-02-27T12:58:40.298Z,51.25
2023-02-27T13:01:23.223Z,50.02
2023-02-27T13:04:14.102Z,52.33
2023-02-27T13:07:09.350Z,50.97
2023-02-27T13:09:50.361Z,50.77
2023-02-27T13:12:33.402Z,52.09
2023-02-27T13:15:05.405Z,52.81
2023-02-27T13:17:43.073Z,52.21
2023-02-27T13:20:21.593Z,52.78
2023-02-27T13:23:30.548Z,53.06
2023-02-27T13:26:00.415Z,52.48
2023-02-27T13:28:29.197Z,50.89
2023-02-27T13:31:20.185Z,51.58
2023-02-27T13:33:57.135Z,51.34
2023-02-27T13:36:33.225Z,51.57
2023-02-27T13:38:59.654Z,52.69
2023-02-27T13:41:29.260Z,52.36
2023-02-27T13:44:20.435Z,51.27
2023-02-27T13:46:47.402Z,52.16
2023-02-27T13:49:28.802Z,52.21
2023-02-27T13:52:00.347Z,51.68
2023-02-27T13:54:31.033Z,51.39
2023-02-27T13:57:03.437Z,52.30
2023-02-27T13:59:41.819Z,52.04
2023-02-27T14:02:11.508Z,52.45
2023-02-27T14:04:51.290Z,51.96
2023-02-27T14:07:21.447Z,51.91
2023-02-27T14:09:51.818Z,50.88
2023-02-27T14:12:42.595Z,50.77
2023-02-27T14:15:38.814Z,51.58
2023-02-27T14:18:43.888Z,50.66
2023-02-27T14:21:10.413Z,49.50
2023-02-27T14:23:37.165Z,50.04
2023-02-27T14:26:17.137Z,50.28
2023-02-27T14:28:52.755Z,50.45
2023-02-27T14:31:32.291Z,49.85
2023-02-27T14:34:05.259Z,51.25
2023-02-27T14:36:42.490Z,51.92
2023-02-27T14:39:20.151Z,51.98
2023-02-27T14:42:01.428Z,51.52
2023-02-27T14:44:36.316Z,51.47
2023-02-27T14:47:03.912Z,52.39
2023-02-27T14:49:35.894Z,51.38
2023-02-27T14:52:21.868Z,52.56
2023-02-27T14:54:52.409Z,51.34
2023-02-27T14:57:28.870Z,51.84
2023-02-27T14:59:55.344Z,50.64
2023-02-27T15:02:30.565Z,49.35
2023-02-27T15:05:03.351Z,50.82
2023-02-27T15:07:33.012Z,50.14
2023-02-27T15:10:06.022Z,50.50
2023-02-27T15:12:38.043Z,49.93
2023-02-27T15:15:07.716Z,49.87
2023-02-27T15:17:38.700Z,50.36
2023-02-27T15:20:29.251Z,51.58
2023-02-27T15:23:01.428Z,51.39
2023-02-27T15:25:39.212Z,51.14
2023-02-27T15:28:17.288Z,50.20
2023-02-27T15:30:48.440Z,51.21
2023-02-27T15:33:16.423Z,50.00
2023-02-27T15:35:45.169Z,49.91
2023-02-27T15:38:28.597Z,50.48
2023-02-27T15:40:57.146Z,51.48
2023-02-27T15:43:26.147Z,50.81
2023-02-27T15:45:53.484Z,51.73
2023-02-27T15:48:20.892Z,52.40
2023-02-27T15:50:52.094Z,52.36
2023-02-27T15:53:21.183Z,51.14
2023-02-27T15:55:53.676Z,51.58
2023-02-27T15:58:31.808Z,51.05
2023-02-27T16:01:02.154Z,51.67
2023-02-27T16:03:34.101Z,51.16
2023-02-27T16:06:01.127Z,51.27
2023-02-27T16:08:30.503Z,52.40
2023-02-27T16:10:57.919Z,51.63
2023-02-27T16:13:38.608Z,52.54
2023-02-27T16:16:32.611Z,52.27
2023-02-27T16:19:02.610Z,52.31
2023-02-27T16:21:33.574Z,52.49
2023-02-27T16:24:29.434Z,52.53
2023-02-27T16:26:55.864Z,52.94
2023-02-27T16:29:28.432Z,53.44
2023-02-27T16:31:56.523Z,53.97
2023-02-27T16:34:44.535Z,53.36
2023-02-27T16:37:21.138Z,54.27
2023-02-27T16:39:52.223Z,54.98
2023-02-27T16:42:18.764Z,54.76
2023-02-27T16:44:45.202Z,54.94
2023-02-27T16:47:12.571Z,55.69
2023-02-27T16:49:40.341Z,55.00
2023-02-27T16:52:10.338Z,54.41
2023-02-27T16:54:42.028Z,53.63
2023-02-27T16:57:09.574Z,54.05
2023-02-27T16:59:40.921Z,53.94
2023-02-27T17:02:13.085Z,54.02
2023-02-27T17:04:39.662Z,53.83
2023-02-27T17:07:06.934Z,53.66
2023-02-27T17:09:33.528Z,53.88
2023-02-27T17:11:59.965Z,55.22
2023-02-27T17:14:26.499Z,54.06
2023-02-27T17:16:53.095Z,53.96
2023-02-27T17:19:21.326Z,54.66
2023-02-27T17:21:48.163Z,54.49
2023-02-27T17:24:14.591Z,53.99
2023-02-27T17:26:41.008Z,54.24
2023-02-27T17:29:09.518Z,55.57
2023-02-27T17:31:37.180Z,55.78
2023-02-27T17:34:05.047Z,56.25
2023-02-27T17:36:31.589Z,56.10
2023-02-27T17:39:00.624Z,56.24
2023-02-27T17:41:27.706Z,56.69
2023-02-27T17:43:56.072Z,55.68
2023-02-27T17:46:25.029Z,55.94
2023-02-27T17:48:51.743Z,56.75
2023-02-27T17:51:18.913Z,57.93
2023-02-27T17:53:45.487Z,57.66
2023-02-27T17:56:13.040Z,58.36
2023-02-27T17:58:40.516Z,58.68
2023-02-27T18:01:09.341Z,58.16
2023-02-27T18:03:35.870Z,58.41
2023-02-27T18:06:02.870Z,59.17
2023-02-27T18:08:29.717Z,58.91
2023-02-27T18:10:56.150Z,59.16
2023-02-27T18:13:23.593Z,59.56
2023-02-27T18:15:50.198Z,59.11
2023-02-27T18:18:16.764Z,59.33
2023-02-27T18:20:43.692Z,59.07
2023-02-27T18:23:10.395Z,58.93
2023-02-27T18:25:36.955Z,58.56
2023-02-27T18:28:04.405Z,58.53
2023-02-27T18:30:33.473Z,58.58
2023-02-27T18:32:59.998Z,58.22
2023-02-27T18:35:27.021Z,57.75
2023-02-27T18:37:53.470Z,58.01
2023-02-27T18:40:24.382Z,57.93
2023-02-27T18:42:52.400Z,57.58
2023-02-27T18:45:19.890Z,57.95
2023-02-27T18:47:46.727Z,57.98
2023-02-27T18:50:13.284Z,56.60
2023-02-27T18:52:39.886Z,56.83
2023-02-27T18:55:06.641Z,56.52
2023-02-27T18:57:33.048Z,57.21
2023-02-27T18:59:59.458Z,57.61
2023-02-27T19:02:25.967Z,57.35
2023-02-27T19:04:52.511Z,56.53
2023-02-27T19:07:20.503Z,57.67
2023-02-27T19:09:46.998Z,56.17
2023-02-27T19:12:13.531Z,57.07
2023-02-27T19:14:40.385Z,56.68
2023-02-27T19:17:06.964Z,57.20
2023-02-27T19:19:33.366Z,57.32
2023-02-27T19:21:59.801Z,57.02
2023-02-27T19:24:26.223Z,56.52
2023-02-27T19:26:53.560Z,57.55
2023-02-27T19:29:20.218Z,56.97
2023-02-27T19:31:46.791Z,57.96
2023-02-27T19:34:14.749Z,57.57
2023-02-27T19:36:41.530Z,56.96
2023-02-27T19:39:08.039Z,56.85
2023-02-27T19:41:34.469Z,56.91
2023-02-27T19:44:01.024Z,57.71
2023-02-27T19:46:31.065Z,57.78
2023-02-27T19:48:59.899Z,56.86
2023-02-27T19:51:26.920Z,57.33
2023-02-27T19:53:53.960Z,56.60
2023-02-27T19:56:22.994Z,58.05
2023-02-27T19:58:49.961Z,58.19
2023-02-27T20:01:36.096Z,58.11
2023-02-27T20:04:03.188Z,58.12
2023-02-27T20:06:32.151Z,58.04
2023-02-27T20:08:59.324Z,58.02
2023-02-27T20:11:30.729Z,57.48
2023-02-27T20:13:57.407Z,58.32
2023-02-27T20:16:26.397Z,57.90
2023-02-27T20:18:53.737Z,58.75
2023-02-27T20:21:24.464Z,57.82
2023-02-27T20:23:53.839Z,56.93
2023-02-27T20:26:29.761Z,57.95
2023-02-27T20:29:00.274Z,58.53
2023-02-27T20:31:30.464Z,58.14
2023-02-27T20:33:57.759Z,58.62
2023-02-27T20:36:24.261Z,57.33
2023-02-27T20:38:50.717Z,58.05
2023-02-27T20:41:20.200Z,57.30
2023-02-27T20:43:47.379Z,57.91
2023-02-27T20:46:20.078Z,58.27
2023-02-27T20:48:47.352Z,57.90
2023-02-27T20:51:17.890Z,58.12
2023-02-27T20:53:46.993Z,58.26
2023-02-27T20:56:14.189Z,58.40
2023-02-27T20:58:41.026Z,58.60
2023-02-27T21:01:12.315Z,58.75
2023-02-27T21:03:41.054Z,58.34
2023-02-27T21:06:09.844Z,58.98
2023-02-27T21:08:38.174Z,58.77
2023-02-27T21:11:09.831Z,58.72
2023-02-27T21:13:36.992Z,59.00
2023-02-27T21:16:06.288Z,58.89
2023-02-27T21:18:33.175Z,58.99
2023-02-27T21:21:09.447Z,58.06
2023-02-27T21:23:41.156Z,58.31
2023-02-27T21:26:21.736Z,58.71
2023-02-27T21:28:57.420Z,58.99
2023-02-27T21:31:26.595Z,58.83
2023-02-27T21:33:54.408Z,59.11
2023-02-27T21:36:29.035Z,58.83
2023-02-27T21:38:57.932Z,58.82
2023-02-27T21:41:24.609Z,58.76
2023-02-27T21:43:51.112Z,58.48
2023-02-27T21:46:17.618Z,58.85
2023-02-27T21:48:44.011Z,58.79
2023-02-27T21:51:10.648Z,58.49
2023-02-27T21:53:37.173Z,59.38
2023-02-27T21:56:05.910Z,59.53
2023-02-27T21:58:32.940Z,59.49
2023-02-27T22:00:59.588Z,59.81
2023-02-27T22:03:34.201Z,59.89
2023-02-27T22:06:01.896Z,60.50
2023-02-27T22:08:28.950Z,60.63
2023-02-27T22:10:59.091Z,60.89
2023-02-27T22:13:26.295Z,60.52
2023-02-27T22:15:53.685Z,60.61
2023-02-27T22:18:20.715Z,61.25
2023-02-27T22:20:47.336Z,61.17
2023-02-27T22:23:13.978Z,60.64
2023-02-27T22:25:41.254Z,61.06
2023-02-27T22:28:08.108Z,61.20
2023-02-27T22:30:34.636Z,61.21
2023-02-27T22:33:01.138Z,61.39
2023-02-27T22:35:27.820Z,61.32
2023-02-27T22:37:54.495Z,61.28
2023-02-27T22:40:21.081Z,61.75
2023-02-27T22:42:50.739Z,61.30
2023-02-27T22:45:17.177Z,61.27
2023-02-27T22:47:43.713Z,61.28
2023-02-27T22:50:10.912Z,61.94
2023-02-27T22:52:37.514Z,61.72
2023-02-27T22:55:04.310Z,61.86
2023-02-27T22:57:30.884Z,61.15
2023-02-27T22:59:57.420Z,61.64
2023-02-27T23:02:24.026Z,61.77
2023-02-27T23:04:50.666Z,61.56
2023-02-27T23:07:17.330Z,61.09
2023-02-27T23:09:43.927Z,60.98
2023-02-27T23:12:10.653Z,61.17
2023-02-27T23:14:37.205Z,61.02
2023-02-27T23:17:03.954Z,61.15
2023-02-27T23:19:30.626Z,61.29
2023-02-27T23:21:57.164Z,60.94
2023-02-27T23:24:23.688Z,60.79
2023-02-27T23:26:51.758Z,61.27
2023-02-27T23:29:18.990Z,60.76
2023-02-27T23:31:45.703Z,61.21
2023-02-27T23:34:12.228Z,61.83
2023-02-27T23:36:39.384Z,61.21
2023-02-27T23:39:06.718Z,61.93
2023-02-27T23:41:33.620Z,61.13
2023-02-27T23:44:01.450Z,61.57
2023-02-27T23:46:30.320Z,61.26
2023-02-27T23:49:01.217Z,61.27
2023-02-27T23:51:30.492Z,61.50
2023-02-27T23:53:57.717Z,61.71
2023-02-27T23:56:27.951Z,61.86
2023-02-27T23:59:03.036Z,61.72
